createdAt,value
2022-08-18T00:07:18.198Z,15.6982421875
2022-08-18T00:17:18.031Z,15.6982421875
2022-08-18T00:27:17.972Z,15.6982421875
2022-08-18T00:37:17.899Z,15.7958984375
2022-08-18T00:47:41.034Z,15.7958984375
2022-08-18T00:57:17.746Z,15.90576171875
2022-08-18T01:07:17.721Z,15.90576171875
2022-08-18T01:17:17.601Z,15.90576171875
2022-08-18T01:27:17.533Z,15.90576171875
2022-08-18T01:37:17.459Z,15.7958984375
2022-08-18T01:47:17.380Z,15.90576171875
2022-08-18T01:57:17.387Z,15.7958984375
2022-08-18T02:07:17.227Z,15.7958984375
2022-08-18T02:17:17.150Z,15.90576171875
2022-08-18T02:27:17.078Z,16.00341796875
2022-08-18T02:37:17.016Z,16.00341796875
2022-08-18T02:47:16.946Z,16.10107421875
2022-08-18T02:57:16.877Z,16.10107421875
2022-08-18T03:07:16.788Z,16.10107421875
2022-08-18T03:17:16.721Z,16.19873046875
2022-08-18T03:27:16.660Z,16.19873046875
2022-08-18T03:37:16.568Z,16.19873046875
2022-08-18T03:47:16.513Z,16.29638671875
2022-08-18T03:57:16.435Z,16.39404296875
2022-08-18T04:07:16.494Z,16.19873046875
2022-08-18T04:17:16.297Z,16.19873046875
2022-08-18T04:27:16.221Z,16.29638671875
2022-08-18T04:37:16.157Z,16.29638671875
2022-08-18T04:47:16.063Z,16.39404296875
2022-08-18T04:57:16.003Z,16.39404296875
2022-08-18T05:07:15.931Z,16.29638671875
2022-08-18T05:17:15.877Z,16.39404296875
2022-08-18T05:27:15.777Z,16.39404296875
2022-08-18T05:37:15.738Z,16.39404296875
2022-08-18T05:47:15.644Z,16.29638671875
2022-08-18T05:57:15.563Z,16.29638671875
2022-08-18T06:07:15.504Z,16.29638671875
2022-08-18T06:17:15.439Z,16.19873046875
2022-08-18T06:27:15.345Z,16.19873046875
2022-08-18T06:37:15.288Z,16.19873046875
2022-08-18T06:47:15.203Z,16.19873046875
2022-08-18T06:57:15.162Z,16.19873046875
2022-08-18T07:07:15.072Z,16.29638671875
2022-08-18T07:17:14.976Z,16.10107421875
2022-08-18T07:27:14.893Z,16.10107421875
2022-08-18T07:37:14.835Z,16.00341796875
2022-08-18T07:47:14.786Z,15.90576171875
2022-08-18T07:57:19.304Z,15.90576171875
2022-08-18T08:07:24.571Z,15.90576171875
2022-08-18T08:17:14.537Z,15.90576171875
2022-08-18T08:27:14.473Z,16.00341796875
2022-08-18T08:47:14.348Z,15.90576171875
2022-08-18T08:57:14.253Z,16.00341796875
2022-08-18T09:07:14.176Z,15.90576171875
2022-08-18T09:17:14.116Z,16.00341796875
2022-08-18T09:27:14.048Z,15.90576171875
2022-08-18T09:37:13.949Z,15.90576171875
2022-08-18T09:47:13.876Z,15.90576171875
2022-08-18T09:57:13.811Z,15.90576171875
2022-08-18T10:07:13.723Z,15.90576171875
2022-08-18T10:17:21.674Z,15.90576171875
2022-08-18T10:27:13.918Z,15.90576171875
2022-08-18T10:37:13.510Z,15.90576171875
2022-08-18T10:47:13.418Z,16.00341796875
2022-08-18T10:57:13.343Z,16.00341796875
2022-08-18T11:07:13.289Z,16.00341796875
2022-08-18T11:17:13.217Z,16.00341796875
2022-08-18T11:27:15.688Z,16.00341796875
2022-08-18T11:37:13.062Z,16.00341796875
2022-08-18T11:47:12.965Z,16.10107421875
2022-08-18T11:57:12.905Z,16.10107421875
2022-08-18T12:07:12.832Z,16.10107421875
2022-08-18T12:17:12.756Z,16.10107421875
2022-08-18T12:37:34.046Z,16.19873046875
2022-08-18T12:47:12.516Z,16.10107421875
2022-08-18T12:57:15.332Z,16.10107421875
2022-08-18T13:07:12.372Z,16.10107421875
2022-08-18T13:17:30.115Z,16.10107421875
2022-08-18T13:27:18.403Z,16.10107421875
2022-08-18T13:37:12.379Z,16.00341796875
2022-08-18T13:47:12.074Z,15.90576171875
2022-08-18T13:57:12.002Z,15.90576171875
2022-08-18T14:07:13.550Z,15.90576171875
2022-08-18T14:17:11.842Z,15.7958984375
2022-08-18T14:27:11.785Z,15.6982421875
2022-08-18T14:37:12.107Z,15.6982421875
2022-08-18T14:47:11.601Z,15.6982421875
2022-08-18T14:57:11.613Z,15.6982421875
2022-08-18T15:07:11.453Z,15.6982421875
2022-08-18T15:17:13.103Z,15.6005859375
2022-08-18T15:27:19.351Z,15.6005859375
2022-08-18T15:37:11.247Z,15.4052734375
2022-08-18T15:47:11.154Z,15.5029296875
2022-08-18T15:57:23.579Z,15.5029296875
2022-08-18T16:07:11.038Z,15.5029296875
2022-08-18T16:17:18.204Z,15.5029296875
2022-08-18T16:27:10.880Z,15.5029296875
2022-08-18T16:37:10.839Z,15.5029296875
2022-08-18T16:47:10.723Z,15.4052734375
2022-08-18T16:57:10.651Z,15.4052734375
2022-08-18T17:07:10.585Z,15.29541015625
2022-08-18T17:17:10.510Z,15.29541015625
2022-08-18T17:27:12.210Z,15.29541015625
2022-08-18T17:37:10.351Z,15.19775390625
2022-08-18T17:47:10.393Z,15.29541015625
2022-08-18T17:57:10.201Z,15.19775390625
2022-08-18T18:07:10.116Z,15.19775390625
2022-08-18T18:17:14.212Z,15.19775390625
2022-08-18T18:27:09.995Z,15.19775390625
2022-08-18T18:37:09.918Z,15.19775390625
2022-08-18T18:47:09.847Z,15.19775390625
2022-08-18T18:57:12.574Z,15.19775390625
2022-08-18T19:07:09.708Z,15.19775390625
2022-08-18T19:17:09.628Z,15.19775390625
2022-08-18T19:27:09.566Z,15.19775390625
2022-08-18T19:37:09.512Z,15.19775390625
2022-08-18T19:47:09.412Z,15.19775390625
2022-08-18T19:57:09.349Z,15.29541015625
2022-08-18T20:07:09.262Z,15.4052734375
2022-08-18T20:17:09.179Z,15.4052734375
2022-08-18T20:27:09.107Z,15.5029296875
2022-08-18T20:37:09.033Z,15.5029296875
2022-08-18T20:47:08.964Z,15.5029296875
2022-08-18T20:57:08.894Z,15.6982421875
2022-08-18T21:07:12.948Z,15.6982421875
2022-08-18T21:17:08.745Z,15.7958984375
2022-08-18T21:27:08.660Z,15.90576171875
2022-08-18T21:37:08.592Z,16.00341796875
2022-08-18T21:47:08.522Z,16.10107421875
2022-08-18T21:57:11.118Z,16.10107421875
2022-08-18T22:07:08.353Z,16.10107421875
2022-08-18T22:17:08.296Z,16.19873046875
2022-08-18T22:27:08.231Z,16.19873046875
2022-08-18T22:37:08.156Z,16.19873046875
2022-08-18T22:47:08.086Z,16.29638671875
2022-08-18T22:57:08.026Z,16.29638671875
2022-08-18T23:07:07.947Z,16.39404296875
2022-08-18T23:17:07.891Z,16.50390625
2022-08-18T23:27:07.810Z,16.6015625
2022-08-18T23:37:07.723Z,16.6015625
2022-08-18T23:47:07.658Z,16.69921875
2022-08-18T23:57:07.578Z,16.69921875
